Flight Number: AVA1497 Duration: 1:15
Departure: Errachaida Moulay Ali Cherif (GMFK) at 08:00 Distance: 473.78 Nm
Arrival: Algiers Dar-El-Beida (DAAG) at 09:15 Equipment: B737

Weather Information
Errachidia, Morocco (GMFK) 31-56N 004-24W 1042M Apr 14, 2024 - 10:00 PM EDT / 2024.04.15 0200 UTC
Wind: Variable at 2 MPH (2 KT):0
Visibility: greater than 7 mile(s):0 Temperature: 60 F (16 C) Dew Point: 33 F (1 C) Relative Humidity: 36% Pressure (altimeter): 30.18 in. Hg (1022 hPa)
ob: GMFK 150200Z VRB02KT CAVOK 16/01 Q1022 NOSIG cycle: 2
Sunrise: 05:50 Sunset: 18:44 (UTC)

Dar-El-Beida, Algeria (DAAG) 36-43N 003-15E 25M Apr 14, 2024 - 10:00 PM EDT / 2024.04.15 0200 UTC
Wind: from the SSW (210 degrees) at 3 MPH (3 KT):0
Visibility: 5 mile(s):0
Sky conditions: mostly cloudy Temperature: 60 F (16 C) Dew Point: 57 F (14 C) Relative Humidity: 87% Pressure (altimeter): 30.09 in. Hg (1019 hPa)
ob: DAAG 150200Z 21003KT 9000 FEW010 BKN020 16/14 Q1019 cycle: 2
Sunrise: 05:14 Sunset: 18:19 (UTC)

TAF:2024/04/14 18:33 TAF TAF DAAG 141700Z 1418/1518 04008KT 9999 FEW020 SCT100 PROB30 TEMPO 1500/1508 3000 BR BKN015 TEMPO 1510/1516 FEW026CB

Previous Pireps for this route
Date Flightnr Aircraft Flight time Fuel used Landing rate On time
2015-05-08AVA1497B73701.228107-241Yes
(pireps marked green are flown by you)

Route map